Portway Acres, Texas
Current Conditions -  °F | °C
As of 10:53 PM on Sunday 21 Dec 2014 (Local Time) from KBRO Reporting Station
Haze Haze  
Wind Chill: 60°   Ceiling: Unl
Heat Index: 60°   Visibility: 4mi
Dew Point: 59°   Wind: 5mph
Humidity: 96%   Direction: 250°WSW
Pressure: 29.9"   Gusts: NA
Location:  26.0002°N, 97.5729°W
Report Text: KBRO 220453Z 25004KT 4SM BR SCT026 16/15 A2990 RMK AO2 SLP125 T01560150
Loading
Personal Weather Stations






























Interactive Weather Map New forecast layout! Learn more

10-Day Weather Forecast

Advertisements
Track Severe Weather on mobile